Time;durP1;ratioP1;P1;durP2;ratioP2;P2;SDS_P1;SDS_P2;PMS_P1;PMS_P2;Temp;Humidity;BMP_temperature;BMP_pressure;BME280_temperature;BME280_humidity;BME280_pressure;Samples;Min_cycle;Max_cycle;Signal;HPM_P1;HPM_P2
2022/01/01 00:01:41;;;;;;;30.05;11.90;;;;;;;12.69;84.38;101997.63;5068427;28;20048;-66
2022/01/01 00:04:09;;;;;;;33.53;10.80;;;;;;;12.74;84.66;102010.53;5071651;28;20048;-66
2022/01/01 00:06:36;;;;;;;30.63;11.02;;;;;;;12.81;84.34;102003.69;5073023;28;20048;-66
2022/01/01 00:09:03;;;;;;;33.28;11.07;;;;;;;12.74;84.42;102006.06;5072776;28;20119;-66
2022/01/01 00:11:30;;;;;;;30.08;11.93;;;;;;;12.67;85.00;102003.09;5074169;28;20037;-66
2022/01/01 00:13:57;;;;;;;32.30;10.70;;;;;;;12.63;85.33;102009.69;5073034;28;20041;-66
2022/01/01 00:16:24;;;;;;;32.83;10.93;;;;;;;12.70;85.07;102006.44;5072942;28;20086;-66
2022/01/01 00:18:51;;;;;;;26.17;10.88;;;;;;;12.74;85.11;102011.38;5056528;28;20040;-66
2022/01/01 00:21:17;;;;;;;25.13;10.82;;;;;;;12.80;84.52;102008.16;5074031;28;20545;-66
2022/01/01 00:23:44;;;;;;;33.78;11.18;;;;;;;12.77;84.68;102020.91;5073584;28;20036;-66
2022/01/01 00:26:11;;;;;;;29.00;10.23;;;;;;;12.78;84.66;102012.78;5056308;28;20037;-66
2022/01/01 00:28:38;;;;;;;30.85;10.48;;;;;;;12.86;84.34;102012.94;5089777;28;20163;-66
2022/01/01 00:31:05;;;;;;;25.58;10.35;;;;;;;12.78;84.78;102022.59;5056404;28;20040;-66
2022/01/01 00:33:32;;;;;;;28.55;10.00;;;;;;;12.79;84.86;102018.97;5059241;28;20147;-67
2022/01/01 00:35:59;;;;;;;36.05;10.98;;;;;;;12.76;84.98;102019.25;5057091;28;20063;-66
2022/01/01 00:38:25;;;;;;;33.20;12.45;;;;;;;12.59;85.53;102029.56;5073661;28;20059;-66
2022/01/01 00:40:52;;;;;;;31.92;12.48;;;;;;;12.70;85.59;102028.63;5072566;28;20045;-66
2022/01/01 00:43:19;;;;;;;31.17;12.27;;;;;;;12.73;85.06;102040.81;5074030;28;20516;-66
2022/01/01 00:45:46;;;;;;;34.63;11.98;;;;;;;12.65;85.84;102033.50;5076134;28;20044;-66
2022/01/01 00:48:14;;;;;;;29.80;12.02;;;;;;;12.85;84.90;102024.56;5076339;28;20067;-66
2022/01/01 00:50:41;;;;;;;31.95;12.00;;;;;;;12.72;85.45;102041.81;5072015;28;20041;-66
2022/01/01 00:53:08;;;;;;;30.77;11.98;;;;;;;12.82;85.40;102035.53;5073656;28;20041;-66
2022/01/01 00:55:34;;;;;;;33.65;12.48;;;;;;;12.65;85.94;102033.50;5073597;28;20052;-66
2022/01/01 00:58:01;;;;;;;28.58;12.75;;;;;;;12.68;85.62;102036.72;5055529;28;20072;-66
2022/01/01 01:00:28;;;;;;;38.72;13.77;;;;;;;12.79;85.79;102035.78;5064868;28;20052;-66
2022/01/01 01:02:55;;;;;;;32.20;13.93;;;;;;;12.81;85.61;102035.66;5073404;28;20068;-66
2022/01/01 01:05:22;;;;;;;37.25;14.82;;;;;;;12.73;86.25;102030.16;5053056;28;20041;-66
2022/01/01 01:07:48;;;;;;;39.25;15.38;;;;;;;12.65;86.12;102041.50;5071823;28;20048;-66
2022/01/01 01:10:15;;;;;;;42.45;15.95;;;;;;;12.68;86.00;102047.38;5055664;28;20048;-67
2022/01/01 01:12:47;;;;;;;42.55;16.50;;;;;;;12.75;85.86;102037.03;5055405;28;20033;-66
2022/01/01 01:15:18;;;;;;;34.00;16.30;;;;;;;12.66;86.31;102038.69;5073013;28;20060;-66
2022/01/01 01:17:46;;;;;;;38.15;17.48;;;;;;;12.81;85.76;102039.16;5072948;28;20045;-66
2022/01/01 01:20:13;;;;;;;38.10;19.25;;;;;;;12.63;85.94;102052.28;5054124;28;20099;-66
2022/01/01 01:22:40;;;;;;;47.65;21.02;;;;;;;12.72;85.98;102047.97;5053515;28;20049;-66
2022/01/01 01:25:08;;;;;;;50.42;21.90;;;;;;;12.69;86.02;102042.88;5072851;28;20036;-66
2022/01/01 01:27:36;;;;;;;45.08;22.33;;;;;;;12.67;86.14;102050.19;5073001;28;20447;-66
2022/01/01 01:30:06;;;;;;;45.28;22.33;;;;;;;12.64;86.51;102040.66;5068586;28;20405;-66
2022/01/01 01:32:34;;;;;;;57.70;24.08;;;;;;;12.69;86.06;102045.56;5054500;28;20049;-66
2022/01/01 01:35:01;;;;;;;49.38;24.65;;;;;;;12.64;86.62;102045.97;5059731;28;20045;-66
2022/01/01 01:37:28;;;;;;;51.45;25.92;;;;;;;12.63;86.55;102057.59;5052827;28;20059;-66
2022/01/01 01:39:56;;;;;;;54.08;25.60;;;;;;;12.93;84.72;102044.34;5066859;28;20040;-66
2022/01/01 01:42:25;;;;;;;50.80;27.65;;;;;;;12.76;85.16;102045.88;5071582;28;20154;-66
2022/01/01 01:44:54;;;;;;;58.10;26.55;;;;;;;12.77;85.25;102047.53;5054425;28;20041;-66
2022/01/01 01:47:31;;;;;;;56.28;26.08;;;;;;;12.66;85.22;102040.50;5071534;28;20040;-66
2022/01/01 01:50:00;;;;;;;54.00;27.30;;;;;;;12.46;85.74;102042.25;5055875;28;20039;-66
2022/01/01 01:52:33;;;;;;;53.72;26.90;;;;;;;12.64;84.89;102055.75;5054787;28;20094;-66
2022/01/01 01:55:02;;;;;;;57.95;26.83;;;;;;;12.66;84.56;102043.16;5064495;28;20037;-66
2022/01/01 01:57:30;;;;;;;56.08;25.88;;;;;;;12.84;83.94;102057.53;5067152;28;20045;-67
2022/01/01 01:59:57;;;;;;;60.42;27.83;;;;;;;12.74;84.33;102064.63;5051871;28;20041;-66
2022/01/01 02:02:23;;;;;;;64.43;27.80;;;;;;;12.75;84.36;102058.34;5054102;28;20052;-66
2022/01/01 02:04:50;;;;;;;64.55;28.05;;;;;;;12.82;83.64;102059.47;5070967;28;20044;-66
2022/01/01 02:07:18;;;;;;;56.72;27.45;;;;;;;12.77;83.92;102061.72;5071986;28;20049;-66
2022/01/01 02:09:45;;;;;;;57.58;27.95;;;;;;;12.75;83.89;102073.44;5069155;28;20051;-66
2022/01/01 02:12:12;;;;;;;55.83;27.85;;;;;;;12.67;84.34;102082.13;5054813;28;20044;-67
2022/01/01 02:15:27;;;;;;;53.20;27.77;;;;;;;12.82;83.22;102069.28;5054482;28;20059;-67
2022/01/01 02:17:30;;;;;;;64.13;27.63;;;;;;;12.80;83.20;102065.91;5071328;28;20144;-66
2022/01/01 02:20:00;;;;;;;60.78;26.90;;;;;;;12.86;82.34;102070.66;5072331;28;20049;-66
2022/01/01 02:22:37;;;;;;;55.58;26.92;;;;;;;12.68;83.59;102068.69;5054501;28;20045;-67
2022/01/01 02:25:06;;;;;;;56.33;25.92;;;;;;;12.83;82.67;102062.97;5072338;28;20041;-66
2022/01/01 02:27:36;;;;;;;49.92;23.50;;;;;;;12.75;82.86;102069.00;5071753;28;20049;-66
2022/01/01 02:30:06;;;;;;;52.17;23.52;;;;;;;12.75;82.56;102054.81;5071400;28;20090;-66
2022/01/01 02:32:33;;;;;;;57.38;23.98;;;;;;;12.61;83.01;102053.41;5070464;28;20036;-66
2022/01/01 02:35:00;;;;;;;51.05;21.80;;;;;;;12.90;81.78;102055.25;5053620;28;20493;-66
2022/01/01 02:37:27;;;;;;;41.17;20.25;;;;;;;12.74;82.41;102069.13;5053997;28;20044;-66
2022/01/01 02:39:53;;;;;;;45.85;20.33;;;;;;;12.86;81.91;102062.69;5072219;28;20040;-66
2022/01/01 02:42:22;;;;;;;45.05;19.25;;;;;;;12.87;81.77;102053.72;5072073;28;20505;-66
2022/01/01 02:44:50;;;;;;;49.35;20.38;;;;;;;12.95;81.27;102053.91;5070198;28;20090;-66
2022/01/01 02:47:17;;;;;;;36.67;17.80;;;;;;;12.82;81.68;102063.94;5070641;28;20036;-66
2022/01/01 02:49:44;;;;;;;40.10;17.90;;;;;;;12.74;81.85;102066.47;5054186;28;20060;-66
2022/01/01 02:52:12;;;;;;;37.13;17.80;;;;;;;12.87;81.61;102062.56;5072145;28;20439;-66
2022/01/01 02:54:39;;;;;;;37.55;15.32;;;;;;;12.85;80.90;102071.66;5054300;28;20040;-66
2022/01/01 02:57:06;;;;;;;39.15;14.82;;;;;;;12.90;80.32;102073.91;5071115;28;20048;-66
2022/01/01 02:59:32;;;;;;;34.15;13.27;;;;;;;12.92;80.05;102064.81;5073808;28;20044;-66
2022/01/01 03:01:59;;;;;;;36.85;13.07;;;;;;;12.90;80.31;102071.25;5076930;28;20106;-66
2022/01/01 03:04:26;;;;;;;39.97;11.82;;;;;;;12.74;80.74;102072.63;5071777;28;20115;-66
2022/01/01 03:06:55;;;;;;;35.40;13.13;;;;;;;12.79;80.49;102066.91;5054119;28;20045;-66
2022/01/01 03:09:24;;;;;;;31.10;11.98;;;;;;;12.94;79.98;102073.50;5070428;28;20044;-66
2022/01/01 03:11:51;;;;;;;31.13;11.68;;;;;;;12.96;79.75;102078.72;5075503;28;20052;-66
2022/01/01 03:14:18;;;;;;;30.67;11.93;;;;;;;12.86;80.10;102079.53;5075509;28;20041;-66
2022/01/01 03:16:46;;;;;;;28.25;10.93;;;;;;;12.76;80.98;102080.47;5057720;28;20049;-66
2022/01/01 03:19:13;;;;;;;29.13;11.00;;;;;;;12.93;80.06;102077.13;5055396;28;20069;-66
2022/01/01 03:21:40;;;;;;;27.20;10.15;;;;;;;12.85;80.10;102072.50;5050744;28;20049;-66
2022/01/01 03:24:08;;;;;;;31.13;10.10;;;;;;;12.57;81.28;102076.78;5070595;28;20041;-66
2022/01/01 03:26:35;;;;;;;29.50;9.90;;;;;;;12.75;80.76;102076.13;5087361;28;20091;-66
2022/01/01 03:29:02;;;;;;;28.35;9.95;;;;;;;12.84;79.96;102073.50;5055146;28;20048;-66
2022/01/01 03:31:28;;;;;;;29.33;10.07;;;;;;;12.69;80.69;102074.84;5053934;28;20045;-66
2022/01/01 03:33:58;;;;;;;25.73;9.68;;;;;;;12.74;80.65;102077.94;5035829;28;20041;-66
2022/01/01 03:36:26;;;;;;;26.08;9.60;;;;;;;12.61;81.28;102070.19;5062286;28;20558;-66
2022/01/01 03:38:54;;;;;;;27.15;10.05;;;;;;;12.82;79.83;102066.59;5073956;28;20048;-66
2022/01/01 03:41:20;;;;;;;29.17;8.95;;;;;;;12.80;80.33;102065.91;5074923;28;20098;-66
2022/01/01 03:43:49;;;;;;;32.97;9.60;;;;;;;12.90;79.73;102074.78;5074762;28;20561;-66
2022/01/01 03:46:16;;;;;;;32.45;9.43;;;;;;;13.08;78.54;102069.63;5074702;28;20086;-66
2022/01/01 03:48:42;;;;;;;27.63;8.35;;;;;;;12.82;79.14;102070.13;5057077;28;20047;-66
2022/01/01 03:51:09;;;;;;;26.30;8.35;;;;;;;12.77;79.43;102056.38;5073697;28;20044;-66
2022/01/01 03:53:37;;;;;;;21.73;7.95;;;;;;;12.74;79.92;102053.16;5074900;28;20051;-66
2022/01/01 03:56:04;;;;;;;28.42;8.80;;;;;;;12.73;80.36;102046.97;5053560;28;20048;-66
2022/01/01 03:58:30;;;;;;;25.40;8.50;;;;;;;12.95;78.70;102045.91;5063769;28;20041;-66
2022/01/01 04:00:57;;;;;;;26.13;9.43;;;;;;;13.00;78.28;102042.81;5056375;28;20471;-66
2022/01/01 04:03:24;;;;;;;27.00;8.65;;;;;;;13.01;78.54;102032.03;5052607;28;20059;-67
2022/01/01 04:05:50;;;;;;;26.85;9.20;;;;;;;13.04;78.69;102034.44;5054293;28;20444;-66
2022/01/01 04:08:17;;;;;;;26.08;9.20;;;;;;;12.99;78.69;102038.47;5054392;28;20048;-66
2022/01/01 04:10:44;;;;;;;27.00;10.18;;;;;;;12.93;78.75;102039.03;5054127;28;20072;-66
2022/01/01 04:13:11;;;;;;;31.00;11.18;;;;;;;12.83;79.71;102042.50;5054415;28;20044;-66
2022/01/01 04:15:39;;;;;;;28.23;9.95;;;;;;;12.75;80.13;102047.69;5054335;28;20037;-66
2022/01/01 04:18:10;;;;;;;30.60;9.98;;;;;;;12.79;80.06;102054.41;5054233;28;20187;-66
2022/01/01 04:20:37;;;;;;;26.20;9.83;;;;;;;12.72;80.98;102044.47;5054339;28;20041;-66
2022/01/01 04:23:09;;;;;;;28.00;10.88;;;;;;;12.69;80.61;102050.88;5036515;28;20321;-66
2022/01/01 04:25:37;;;;;;;26.58;10.40;;;;;;;12.86;79.99;102049.38;5054011;28;20043;-66
2022/01/01 04:28:04;;;;;;;33.38;10.65;;;;;;;12.82;79.93;102050.63;5052907;28;20044;-66
2022/01/01 04:30:31;;;;;;;33.90;10.32;;;;;;;12.82;80.12;102048.84;5052367;28;20045;-66
2022/01/01 04:32:58;;;;;;;27.35;10.70;;;;;;;12.86;79.59;102044.91;5052961;28;20041;-66
2022/01/01 04:35:25;;;;;;;32.00;10.15;;;;;;;12.83;79.87;102036.34;5065000;28;20127;-66
2022/01/01 04:37:52;;;;;;;30.55;10.82;;;;;;;12.83;79.95;102045.16;5073712;28;20048;-66
2022/01/01 04:40:19;;;;;;;39.03;10.65;;;;;;;12.85;79.54;102042.38;5073860;28;20049;-66
2022/01/01 04:42:46;;;;;;;30.83;11.13;;;;;;;12.84;79.52;102033.56;5089950;28;20102;-66
2022/01/01 04:45:13;;;;;;;30.70;10.30;;;;;;;12.84;79.34;102036.22;5072409;28;20040;-66
2022/01/01 04:47:39;;;;;;;29.83;11.18;;;;;;;12.79;79.60;102034.94;5056081;28;20394;-66
2022/01/01 04:50:06;;;;;;;26.13;9.88;;;;;;;12.82;79.60;102039.97;5073391;28;20048;-66
2022/01/01 04:52:33;;;;;;;29.25;9.77;;;;;;;12.77;80.15;102053.72;5071435;28;20102;-66
2022/01/01 04:55:02;;;;;;;25.50;10.18;;;;;;;12.73;79.57;102052.28;5085406;28;20040;-66
2022/01/01 04:57:30;;;;;;;28.73;9.95;;;;;;;12.78;79.68;102047.41;5054779;28;20048;-66
2022/01/01 04:59:58;;;;;;;30.73;9.70;;;;;;;12.71;80.24;102046.25;5072437;28;20047;-66
2022/01/01 05:02:26;;;;;;;27.45;9.63;;;;;;;12.69;80.14;102053.53;5071985;28;20052;-66
2022/01/01 05:04:53;;;;;;;27.77;9.82;;;;;;;12.66;80.48;102045.81;5070180;28;20117;-66
2022/01/01 05:07:21;;;;;;;31.60;9.50;;;;;;;12.67;80.48;102048.34;5035733;28;20386;-66
2022/01/01 05:09:48;;;;;;;29.10;9.75;;;;;;;12.67;80.41;102066.16;5050416;28;20055;-66
2022/01/01 05:12:15;;;;;;;26.10;9.32;;;;;;;12.60;81.55;102070.34;5054400;28;20041;-66
2022/01/01 05:14:42;;;;;;;22.15;8.82;;;;;;;12.58;81.22;102070.47;5058143;28;20047;-66
2022/01/01 05:17:08;;;;;;;23.40;9.13;;;;;;;12.65;80.62;102068.13;5053667;28;20467;-66
2022/01/01 05:19:35;;;;;;;30.40;9.85;;;;;;;12.65;80.93;102062.78;5051849;28;20055;-66
2022/01/01 05:22:02;;;;;;;28.10;9.38;;;;;;;12.60;80.88;102065.00;5053172;28;20041;-66
2022/01/01 05:24:29;;;;;;;29.60;9.77;;;;;;;12.65;80.48;102068.13;5051749;28;20056;-66
2022/01/01 05:26:57;;;;;;;25.70;9.18;;;;;;;12.67;80.13;102082.97;5051999;28;20133;-66
2022/01/01 05:29:24;;;;;;;29.70;9.25;;;;;;;12.66;80.53;102081.28;5035329;28;20044;-66
2022/01/01 05:31:51;;;;;;;28.13;8.80;;;;;;;12.60;80.68;102087.13;5033186;28;20047;-66
2022/01/01 05:34:17;;;;;;;25.23;8.98;;;;;;;12.68;80.28;102083.81;5065860;28;20051;-66
2022/01/01 05:36:44;;;;;;;25.70;8.57;;;;;;;12.62;80.49;102077.19;5038684;28;20072;-66
2022/01/01 05:39:11;;;;;;;22.63;9.32;;;;;;;12.59;81.13;102074.81;5055149;28;20067;-66
2022/01/01 05:41:37;;;;;;;24.27;9.25;;;;;;;12.63;80.41;102078.06;5071535;28;20036;-66
2022/01/01 05:44:04;;;;;;;24.42;9.05;;;;;;;12.52;80.71;102075.50;5072573;28;20049;-66
2022/01/01 05:46:32;;;;;;;24.63;8.85;;;;;;;12.52;80.23;102078.16;5071186;28;20037;-66
2022/01/01 05:48:59;;;;;;;23.67;8.50;;;;;;;12.61;79.93;102072.03;5071799;28;20079;-66
2022/01/01 05:51:25;;;;;;;24.95;8.27;;;;;;;12.61;79.79;102080.84;5088546;28;20409;-67
2022/01/01 05:53:52;;;;;;;25.08;7.82;;;;;;;12.64;79.63;102080.59;5072845;28;20051;-66
2022/01/01 05:56:20;;;;;;;19.92;7.65;;;;;;;12.59;80.32;102085.47;5059129;28;20413;-66
2022/01/01 05:58:46;;;;;;;24.50;7.47;;;;;;;12.46;80.43;102084.84;5055423;28;20057;-66
2022/01/01 06:01:13;;;;;;;26.10;7.60;;;;;;;12.62;79.95;102077.19;5045189;28;20111;-66
2022/01/01 06:03:40;;;;;;;21.08;7.47;;;;;;;12.51;79.82;102073.81;5070575;28;20401;-66
2022/01/01 06:06:06;;;;;;;21.83;7.30;;;;;;;12.50;80.44;102070.31;5060437;28;20033;-66
2022/01/01 06:08:38;;;;;;;26.35;7.75;;;;;;;12.56;79.62;102067.09;5066916;28;20440;-66
2022/01/01 06:11:05;;;;;;;21.85;6.72;;;;;;;12.61;79.20;102075.53;5050963;28;20048;-66
2022/01/01 06:13:32;;;;;;;21.05;6.75;;;;;;;12.61;79.48;102072.88;5034789;28;20498;-66
2022/01/01 06:15:59;;;;;;;22.05;6.45;;;;;;;12.48;79.89;102067.78;5051204;28;20466;-66
2022/01/01 06:18:25;;;;;;;22.45;7.22;;;;;;;12.51;79.62;102071.97;5052475;28;20057;-66
2022/01/01 06:20:52;;;;;;;19.92;6.63;;;;;;;12.51;79.61;102069.31;5052407;28;20186;-66
2022/01/01 06:23:19;;;;;;;22.40;6.47;;;;;;;12.57;78.81;102068.78;5041551;28;20041;-66
2022/01/01 06:25:45;;;;;;;17.63;6.43;;;;;;;12.49;79.79;102080.09;5050868;28;20041;-66
2022/01/01 06:28:12;;;;;;;24.02;6.50;;;;;;;12.57;79.59;102089.22;5051234;28;20136;-66
2022/01/01 06:30:39;;;;;;;22.95;6.70;;;;;;;12.45;80.09;102084.00;5052332;28;20114;-67
2022/01/01 06:35:46;;;;;;;19.88;6.13;;;;;;;12.51;79.56;102093.25;5073892;27;20379;-67
2022/01/01 06:38:13;;;;;;;17.98;6.22;;;;;;;12.51;79.41;102084.44;5066137;28;20400;-67
2022/01/01 06:40:41;;;;;;;15.70;6.10;;;;;;;12.56;79.22;102088.38;5068207;28;20037;-67
2022/01/01 06:43:09;;;;;;;22.48;6.65;;;;;;;12.45;80.34;102089.31;5068138;28;20095;-67
2022/01/01 06:45:36;;;;;;;24.33;7.72;;;;;;;12.39;80.71;102086.38;5068635;28;20059;-67
2022/01/01 06:48:04;;;;;;;22.67;6.78;;;;;;;12.47;79.88;102079.38;5069598;28;20054;-67
2022/01/01 06:50:31;;;;;;;17.08;5.78;;;;;;;12.42;79.79;102089.59;5051895;28;20417;-67
2022/01/01 06:52:58;;;;;;;22.48;5.78;;;;;;;12.45;79.39;102094.66;5068563;28;20118;-67
2022/01/01 06:55:25;;;;;;;21.90;6.03;;;;;;;12.58;78.63;102101.56;5051547;28;20464;-67
2022/01/01 06:57:52;;;;;;;17.08;6.25;;;;;;;12.51;79.09;102095.09;5101974;28;20120;-66
2022/01/01 07:00:19;;;;;;;17.52;5.55;;;;;;;12.42;79.97;102094.06;5068083;28;20048;-67
2022/01/01 07:02:47;;;;;;;20.05;6.28;;;;;;;12.51;78.49;102097.75;5068383;28;20037;-67
2022/01/01 07:05:15;;;;;;;24.55;6.00;;;;;;;12.61;78.01;102101.31;5066368;28;20136;-67
2022/01/01 07:07:42;;;;;;;19.23;5.13;;;;;;;12.55;78.57;102093.84;5068852;28;20048;-67
2022/01/01 07:10:13;;;;;;;21.30;5.78;;;;;;;12.49;78.18;102081.91;5068168;28;20044;-67
2022/01/01 07:12:40;;;;;;;15.23;5.53;;;;;;;12.48;78.38;102097.06;5068000;28;20044;-67
2022/01/01 07:15:08;;;;;;;19.88;5.20;;;;;;;12.54;78.19;102093.00;5067910;28;20049;-67
2022/01/01 07:17:34;;;;;;;18.20;5.25;;;;;;;12.66;77.18;102102.59;5068212;28;20055;-67
2022/01/01 07:20:02;;;;;;;29.23;6.13;;;;;;;12.52;77.86;102094.13;5069193;28;20063;-67
2022/01/01 07:22:29;;;;;;;20.27;5.30;;;;;;;12.49;78.08;102100.53;5051174;28;20131;-67
2022/01/01 07:24:57;;;;;;;18.30;5.40;;;;;;;12.52;77.62;102104.78;5051601;28;20063;-66
2022/01/01 07:27:24;;;;;;;19.23;5.10;;;;;;;12.69;76.60;102112.13;5069526;28;20038;-66
2022/01/01 07:29:50;;;;;;;21.27;5.13;;;;;;;12.59;77.19;102114.75;5079183;28;20055;-68
2022/01/01 07:32:17;;;;;;;16.60;4.82;;;;;;;12.64;76.75;102119.66;5077076;28;20040;-65
2022/01/01 07:34:44;;;;;;;16.63;4.95;;;;;;;12.60;76.78;102118.25;5073342;28;20053;-67
2022/01/01 07:37:10;;;;;;;22.85;5.53;;;;;;;12.61;77.02;102123.44;5067437;28;20045;-66
2022/01/01 07:39:37;;;;;;;16.63;4.68;;;;;;;12.60;77.07;102120.91;5067595;28;20040;-66
2022/01/01 07:42:04;;;;;;;20.20;5.13;;;;;;;12.72;76.27;102122.50;5050941;28;20418;-67
2022/01/01 07:44:31;;;;;;;22.48;4.63;;;;;;;12.45;76.96;102121.25;5067296;28;20040;-65
2022/01/01 07:46:58;;;;;;;21.58;4.95;;;;;;;12.68;76.42;102121.94;5056220;28;20037;-66
2022/01/01 07:49:24;;;;;;;14.65;4.47;;;;;;;12.70;75.97;102124.47;5055196;28;20045;-67
2022/01/01 07:51:51;;;;;;;20.85;4.60;;;;;;;12.55;76.80;102117.78;5053958;28;20056;-66
2022/01/01 07:54:18;;;;;;;24.50;4.47;;;;;;;12.53;76.29;102120.59;5054104;28;20041;-67
2022/01/01 07:56:44;;;;;;;16.10;4.38;;;;;;;12.55;76.89;102129.31;5054025;28;20041;-67
2022/01/01 07:59:12;;;;;;;17.88;4.13;;;;;;;12.51;77.01;102127.88;5054160;28;20044;-67
2022/01/01 08:01:40;;;;;;;19.90;4.45;;;;;;;12.53;76.52;102125.91;5053864;28;20057;-67
2022/01/01 08:04:06;;;;;;;18.77;4.20;;;;;;;12.43;76.59;102125.88;5051798;28;20037;-67
2022/01/01 08:06:33;;;;;;;24.42;4.63;;;;;;;12.60;76.11;102136.88;5054658;28;20041;-67
2022/01/01 08:09:00;;;;;;;16.02;4.18;;;;;;;12.67;75.62;102138.88;5054844;28;20037;-67
2022/01/01 08:11:27;;;;;;;14.25;4.00;;;;;;;12.52;76.06;102134.06;5053595;28;20094;-67
2022/01/01 08:13:54;;;;;;;18.17;3.72;;;;;;;12.65;75.35;102142.66;5054901;28;20045;-67
2022/01/01 08:16:21;;;;;;;15.57;4.18;;;;;;;12.70;75.46;102142.22;5054834;28;20044;-67
2022/01/01 08:18:48;;;;;;;14.90;3.75;;;;;;;12.63;75.47;102145.44;5053283;28;20041;-67
2022/01/01 08:21:15;;;;;;;22.20;4.05;;;;;;;12.70;75.38;102152.88;5053439;28;20048;-67
2022/01/01 08:23:41;;;;;;;16.85;4.40;;;;;;;12.62;75.89;102151.72;5053393;28;20620;-68
2022/01/01 08:26:11;;;;;;;18.70;4.22;;;;;;;12.76;74.84;102150.53;5037300;28;20048;-67
2022/01/01 08:28:38;;;;;;;14.48;3.53;;;;;;;12.73;75.08;102148.13;5054531;28;20120;-67
2022/01/01 08:31:06;;;;;;;18.23;4.13;;;;;;;12.76;75.48;102149.72;5035051;28;20047;-67
2022/01/01 08:33:32;;;;;;;15.98;4.15;;;;;;;12.76;74.71;102145.22;5036769;28;20049;-67
2022/01/01 08:36:03;;;;;;;18.25;3.55;;;;;;;12.80;74.83;102143.13;5052978;28;20517;-66
2022/01/01 08:38:32;;;;;;;15.05;3.80;;;;;;;12.68;75.10;102148.56;5050056;28;20057;-66
2022/01/01 08:40:59;;;;;;;17.65;4.32;;;;;;;12.85;74.65;102143.56;5052397;28;20071;-66
2022/01/01 08:43:26;;;;;;;15.77;4.90;;;;;;;12.65;75.00;102142.66;5052988;28;20041;-66
2022/01/01 08:45:53;;;;;;;20.08;4.32;;;;;;;12.62;75.88;102142.91;5052967;28;20041;-66
2022/01/01 08:48:20;;;;;;;20.60;4.13;;;;;;;12.62;75.38;102138.41;5052737;28;20053;-67
2022/01/01 08:50:47;;;;;;;20.77;4.13;;;;;;;12.82;74.57;102139.38;5054040;28;20051;-67
2022/01/01 08:53:15;;;;;;;18.35;5.10;;;;;;;12.92;73.98;102141.22;5054041;28;20045;-66
2022/01/01 08:55:42;;;;;;;17.80;3.83;;;;;;;12.98;73.79;102138.00;5020031;28;20045;-66
2022/01/01 08:58:09;;;;;;;16.40;4.07;;;;;;;12.99;73.36;102142.38;5035310;28;20040;-66
2022/01/01 09:00:50;;;;;;;;;;;;;;;13.07;73.53;102140.69;5053118;28;20052;-66
2022/01/01 09:03:17;;;;;;;15.68;3.53;;;;;;;12.92;74.17;102144.72;5035294;28;20424;-67
2022/01/01 09:05:44;;;;;;;18.67;3.80;;;;;;;13.00;73.93;102146.69;5035327;28;20128;-66
2022/01/01 09:08:22;;;;;;;15.20;3.92;;;;;;;13.02;74.17;102145.59;5053608;28;20045;-67
2022/01/01 09:10:48;;;;;;;15.52;3.95;;;;;;;13.13;73.48;102146.44;5035886;28;20056;-66
2022/01/01 09:13:15;;;;;;;14.93;4.30;;;;;;;13.13;73.05;102139.28;5053549;28;20044;-66
2022/01/01 09:15:42;;;;;;;19.75;3.97;;;;;;;13.14;73.79;102141.00;5035695;28;20033;-67
2022/01/01 09:18:09;;;;;;;21.15;4.45;;;;;;;13.15;74.35;102134.69;5035891;28;20460;-66
2022/01/01 09:20:35;;;;;;;17.23;4.15;;;;;;;13.15;73.96;102139.16;5035804;28;20091;-66
2022/01/01 09:23:02;;;;;;;16.83;3.75;;;;;;;13.28;72.81;102137.09;5053393;28;20052;-66
2022/01/01 09:25:29;;;;;;;18.92;3.80;;;;;;;13.16;73.30;102136.38;5019163;28;20098;-66
2022/01/01 09:27:55;;;;;;;18.60;3.65;;;;;;;13.28;72.50;102131.78;5052283;28;20121;-66
2022/01/01 09:30:23;;;;;;;19.45;3.70;;;;;;;13.24;72.87;102135.66;5035481;28;20094;-66
2022/01/01 09:32:50;;;;;;;14.65;3.88;;;;;;;13.27;73.41;102124.75;5053372;28;20074;-66
2022/01/01 09:35:18;;;;;;;14.30;4.15;;;;;;;13.36;73.17;102125.78;5051257;28;20044;-66
2022/01/01 09:37:45;;;;;;;23.65;4.80;;;;;;;13.34;73.31;102127.75;5053154;28;20072;-67
2022/01/01 09:40:11;;;;;;;19.15;4.43;;;;;;;13.30;73.31;102135.13;5053195;28;20583;-66
2022/01/01 09:42:40;;;;;;;16.63;3.92;;;;;;;13.46;72.72;102142.59;5053536;28;20497;-66
2022/01/01 09:45:08;;;;;;;17.50;4.03;;;;;;;13.65;71.23;102139.13;5056407;28;20056;-66
2022/01/01 09:47:37;;;;;;;13.30;3.20;;;;;;;13.63;72.11;102144.59;5054419;28;20523;-66
2022/01/01 09:50:06;;;;;;;14.82;3.45;;;;;;;13.60;71.32;102144.03;5053295;28;20041;-66
2022/01/01 09:52:33;;;;;;;12.65;3.75;;;;;;;13.58;70.93;102149.50;5018989;28;20053;-66
2022/01/01 09:55:00;;;;;;;18.98;3.90;;;;;;;13.64;71.38;102153.41;5035387;28;20068;-66
2022/01/01 09:57:27;;;;;;;13.27;3.53;;;;;;;13.73;71.03;102152.59;5052816;28;20123;-66
2022/01/01 09:59:54;;;;;;;12.10;3.35;;;;;;;13.75;71.73;102160.44;5035305;28;20099;-66
2022/01/01 10:02:21;;;;;;;14.10;3.50;;;;;;;13.89;70.75;102160.03;5052276;28;20095;-66
2022/01/01 10:04:51;;;;;;;16.20;3.75;;;;;;;13.93;70.72;102150.75;5049548;28;20103;-66
2022/01/01 10:07:28;;;;;;;19.25;4.00;;;;;;;13.97;70.79;102154.84;5052522;28;20451;-66
2022/01/01 10:09:56;;;;;;;14.15;3.67;;;;;;;14.10;70.00;102146.53;5052478;28;20037;-67
2022/01/01 10:12:41;;;;;;;19.48;3.40;;;;;;;14.09;70.11;102138.66;5052557;28;20098;-67
2022/01/01 10:15:08;;;;;;;14.25;3.58;;;;;;;14.11;69.73;102139.34;5051386;28;20127;-67
2022/01/01 10:17:35;;;;;;;17.13;3.53;;;;;;;14.18;69.51;102140.47;5034692;28;20102;-67
2022/01/01 10:20:04;;;;;;;13.55;3.42;;;;;;;14.10;70.17;102141.19;5051291;28;20132;-67
2022/01/01 10:22:30;;;;;;;14.70;3.60;;;;;;;14.29;68.74;102144.81;5051306;28;20560;-64
2022/01/01 10:27:58;;;;;;;14.85;3.60;;;;;;;14.40;68.90;102136.63;5050929;28;20540;-67
2022/01/01 10:30:36;;;;;;;12.45;3.50;;;;;;;14.46;68.35;102133.38;5065396;28;20071;-66
2022/01/01 10:33:13;;;;;;;14.52;3.60;;;;;;;14.62;67.61;102135.44;5052065;28;20565;-67
2022/01/01 10:35:45;;;;;;;12.02;3.70;;;;;;;14.59;67.98;102144.59;5033880;28;20251;-67
2022/01/01 10:38:15;;;;;;;12.73;4.10;;;;;;;14.50;68.63;102139.28;5050384;28;20056;-67
2022/01/01 10:40:43;;;;;;;13.32;3.30;;;;;;;14.57;68.19;102129.66;5049970;28;20052;-67
2022/01/01 10:43:10;;;;;;;12.32;3.72;;;;;;;14.55;68.45;102121.81;5052042;28;20187;-67
2022/01/01 10:45:40;;;;;;;13.32;3.80;;;;;;;14.50;68.71;102120.59;5050738;28;20397;-67
2022/01/01 10:48:40;;;;;;;13.60;3.85;;;;;;;14.50;68.61;102116.09;5051024;28;20041;-67
2022/01/01 10:50:59;;;;;;;19.23;3.50;;;;;;;14.44;67.93;102121.16;5051089;28;20509;-67
2022/01/01 10:53:28;;;;;;;12.70;3.60;;;;;;;14.39;68.23;102114.44;5052204;28;20098;-67
2022/01/01 10:55:58;;;;;;;18.45;3.83;;;;;;;14.32;69.08;102104.50;5034538;28;20041;-67
2022/01/01 10:58:29;;;;;;;14.50;3.80;;;;;;;14.36;68.51;102097.88;5050879;28;20044;-66
2022/01/01 11:01:01;;;;;;;13.82;3.55;;;;;;;14.28;68.63;102095.94;5050686;28;20051;-67
2022/01/01 11:03:36;;;;;;;12.25;4.10;;;;;;;14.26;69.31;102092.56;5048936;28;20056;-67
2022/01/01 11:06:07;;;;;;;13.93;3.95;;;;;;;14.27;68.74;102088.06;5030972;28;20033;-67
2022/01/01 11:08:35;;;;;;;12.98;3.47;;;;;;;14.15;69.40;102087.38;5048751;28;20096;-67
2022/01/01 11:11:03;;;;;;;11.38;3.50;;;;;;;14.08;69.96;102071.13;5032000;28;20099;-67
2022/01/01 11:13:32;;;;;;;18.25;3.85;;;;;;;14.10;70.00;102076.28;5041281;28;20409;-67
2022/01/01 11:15:59;;;;;;;14.88;3.97;;;;;;;14.18;70.30;102074.59;5051746;28;20041;-67
2022/01/01 11:18:26;;;;;;;14.50;3.60;;;;;;;14.33;70.06;102071.44;5051872;28;20132;-68
2022/01/01 11:20:53;;;;;;;12.07;3.88;;;;;;;14.29;69.74;102062.91;5051705;28;20127;-67
2022/01/01 11:23:21;;;;;;;15.57;4.03;;;;;;;14.31;69.90;102055.56;5038206;28;20073;-68